Terminal Aerodrome Forecast
Issued by NWS

Home | Current Version | Previous Version | Text Only | Print | Product List | Glossary On
Versions: 1 2 3 4 5 6 7 8 9 10 11 12 13 14 15 16 17 18 19 20
000
FTUS42 KMLB 062321
TAFFPR
TAF
KFPR 062321Z 0700/0724 10008KT P6SM SCT030 BKN250
     FM070100 33010KT P6SM SCT030 BKN060 OVC120
      TEMPO 0701/0702 33010G20KT 3SM TSRA BKN025CB OVC060
     FM070300 VRB04KT P6SM SCT030 SCT100 BKN250
     FM070500 VRB03KT P6SM FEW025 SCT250
     FM071600 10009KT P6SM SCT035 SCT250=

USA.gov is the U.S. government's official web portal to all federal, state and local government web resources and services.